Search for airport 
image banner adimage banner ad
image banner ad

SVLK - La Vieja

Located in Anzoategui, Venezuela

ICAO - SVLK, IATA -

Data provided by Airmate  

General information

Coordinates: N9°41'0" W64°11'0"
Elevation is 296 feet MSL.
 
Rated:
View ratings: [VIEW]


View others Airports in Apure

Operational data

Open for public use
Current time UTC:
Current local time:
TAF: TAF SVBC 031600Z 0312/0412 09010KT 9999 BKN010 TX35/18Z TN24/08Z BECMG 0315/0319 09008KT SCT010 TEMPO 0320/0323 07008KT SCT010 SCT070
View NOTAMs / SUP AIP / TFR affecting this airport [VIEW]
Communications frequencies: [VIEW]

Runways:

RWY identifierQFULength (ft)Width (ft)SurfaceLDA (ft)
1000
2800

Airport contact information

Address: Anzoategui Venezuela

Satellite view of SVLK